sensor_id;sensor_type;location;lat;lon;timestamp;P1;durP1;ratioP1;P2;durP2;ratioP2
73919;SDS011;62266;53.348;-1.496;2023-05-07T00:01:38;19.48;;;11.45;;
73919;SDS011;62266;53.348;-1.496;2023-05-07T00:04:22;16.33;;;10.70;;
73919;SDS011;62266;53.348;-1.496;2023-05-07T00:07:07;15.45;;;10.18;;
73919;SDS011;62266;53.348;-1.496;2023-05-07T00:09:51;17.50;;;11.10;;
73919;SDS011;62266;53.348;-1.496;2023-05-07T00:12:35;17.30;;;10.37;;
73919;SDS011;62266;53.348;-1.496;2023-05-07T00:15:20;18.00;;;11.27;;
73919;SDS011;62266;53.348;-1.496;2023-05-07T00:18:04;14.07;;;9.30;;
73919;SDS011;62266;53.348;-1.496;2023-05-07T00:20:48;17.00;;;9.80;;
73919;SDS011;62266;53.348;-1.496;2023-05-07T00:23:32;15.98;;;10.68;;
73919;SDS011;62266;53.348;-1.496;2023-05-07T00:26:16;16.93;;;9.70;;
73919;SDS011;62266;53.348;-1.496;2023-05-07T00:29:00;15.95;;;10.20;;
73919;SDS011;62266;53.348;-1.496;2023-05-07T00:31:44;19.67;;;11.00;;
73919;SDS011;62266;53.348;-1.496;2023-05-07T00:34:28;16.98;;;10.18;;
73919;SDS011;62266;53.348;-1.496;2023-05-07T00:37:13;18.40;;;11.88;;
73919;SDS011;62266;53.348;-1.496;2023-05-07T00:39:57;17.13;;;10.70;;
73919;SDS011;62266;53.348;-1.496;2023-05-07T00:42:41;17.20;;;10.35;;
73919;SDS011;62266;53.348;-1.496;2023-05-07T00:45:30;18.48;;;11.20;;
73919;SDS011;62266;53.348;-1.496;2023-05-07T00:48:15;19.25;;;10.80;;
73919;SDS011;62266;53.348;-1.496;2023-05-07T00:50:59;19.20;;;11.30;;
73919;SDS011;62266;53.348;-1.496;2023-05-07T00:53:43;18.77;;;11.00;;
73919;SDS011;62266;53.348;-1.496;2023-05-07T00:56:27;17.80;;;11.00;;
73919;SDS011;62266;53.348;-1.496;2023-05-07T00:59:12;18.52;;;11.02;;
73919;SDS011;62266;53.348;-1.496;2023-05-07T01:01:56;17.67;;;11.23;;
73919;SDS011;62266;53.348;-1.496;2023-05-07T01:04:40;18.13;;;10.65;;
73919;SDS011;62266;53.348;-1.496;2023-05-07T01:07:24;19.23;;;10.90;;
73919;SDS011;62266;53.348;-1.496;2023-05-07T01:10:09;19.70;;;11.95;;
73919;SDS011;62266;53.348;-1.496;2023-05-07T01:12:53;18.85;;;10.48;;
73919;SDS011;62266;53.348;-1.496;2023-05-07T01:15:38;20.75;;;11.60;;
73919;SDS011;62266;53.348;-1.496;2023-05-07T01:18:24;20.58;;;11.98;;
73919;SDS011;62266;53.348;-1.496;2023-05-07T01:21:10;18.67;;;10.90;;
73919;SDS011;62266;53.348;-1.496;2023-05-07T01:23:55;17.83;;;10.93;;
73919;SDS011;62266;53.348;-1.496;2023-05-07T01:26:42;18.98;;;11.18;;
73919;SDS011;62266;53.348;-1.496;2023-05-07T01:29:27;19.98;;;11.93;;
73919;SDS011;62266;53.348;-1.496;2023-05-07T01:32:12;19.17;;;11.10;;
73919;SDS011;62266;53.348;-1.496;2023-05-07T01:34:57;21.23;;;11.37;;
73919;SDS011;62266;53.348;-1.496;2023-05-07T01:37:42;20.58;;;10.80;;
73919;SDS011;62266;53.348;-1.496;2023-05-07T01:40:27;18.10;;;10.40;;
73919;SDS011;62266;53.348;-1.496;2023-05-07T01:43:11;20.83;;;10.57;;
73919;SDS011;62266;53.348;-1.496;2023-05-07T01:45:55;24.25;;;11.77;;
73919;SDS011;62266;53.348;-1.496;2023-05-07T01:48:41;18.00;;;11.13;;
73919;SDS011;62266;53.348;-1.496;2023-05-07T01:51:29;18.98;;;11.65;;
73919;SDS011;62266;53.348;-1.496;2023-05-07T01:54:16;20.13;;;11.18;;
73919;SDS011;62266;53.348;-1.496;2023-05-07T01:57:00;20.30;;;11.68;;
73919;SDS011;62266;53.348;-1.496;2023-05-07T01:59:45;19.13;;;11.05;;
73919;SDS011;62266;53.348;-1.496;2023-05-07T02:02:30;18.10;;;10.73;;
73919;SDS011;62266;53.348;-1.496;2023-05-07T02:05:14;19.30;;;11.13;;
73919;SDS011;62266;53.348;-1.496;2023-05-07T02:07:58;19.77;;;10.98;;
73919;SDS011;62266;53.348;-1.496;2023-05-07T02:10:42;20.20;;;10.20;;
73919;SDS011;62266;53.348;-1.496;2023-05-07T02:13:28;20.83;;;12.00;;
73919;SDS011;62266;53.348;-1.496;2023-05-07T02:16:13;18.60;;;11.20;;
73919;SDS011;62266;53.348;-1.496;2023-05-07T02:18:58;18.35;;;11.15;;
73919;SDS011;62266;53.348;-1.496;2023-05-07T02:21:42;20.42;;;11.27;;
73919;SDS011;62266;53.348;-1.496;2023-05-07T02:24:26;20.90;;;11.73;;
73919;SDS011;62266;53.348;-1.496;2023-05-07T02:27:11;20.85;;;12.20;;
73919;SDS011;62266;53.348;-1.496;2023-05-07T02:29:55;19.50;;;10.03;;
73919;SDS011;62266;53.348;-1.496;2023-05-07T02:32:40;21.23;;;12.43;;
73919;SDS011;62266;53.348;-1.496;2023-05-07T02:35:24;20.15;;;11.30;;
73919;SDS011;62266;53.348;-1.496;2023-05-07T02:38:09;20.58;;;11.48;;
73919;SDS011;62266;53.348;-1.496;2023-05-07T02:40:54;21.70;;;12.45;;
73919;SDS011;62266;53.348;-1.496;2023-05-07T02:43:39;21.70;;;12.17;;
73919;SDS011;62266;53.348;-1.496;2023-05-07T02:46:23;20.88;;;11.60;;
73919;SDS011;62266;53.348;-1.496;2023-05-07T02:49:30;21.35;;;11.85;;
73919;SDS011;62266;53.348;-1.496;2023-05-07T02:52:15;21.90;;;12.02;;
73919;SDS011;62266;53.348;-1.496;2023-05-07T02:55:01;20.80;;;11.32;;
73919;SDS011;62266;53.348;-1.496;2023-05-07T02:57:47;22.77;;;11.80;;
73919;SDS011;62266;53.348;-1.496;2023-05-07T03:00:31;21.88;;;11.32;;
73919;SDS011;62266;53.348;-1.496;2023-05-07T03:03:16;25.17;;;12.38;;
73919;SDS011;62266;53.348;-1.496;2023-05-07T03:06:00;22.83;;;11.50;;
73919;SDS011;62266;53.348;-1.496;2023-05-07T03:08:45;23.33;;;11.88;;
73919;SDS011;62266;53.348;-1.496;2023-05-07T03:11:29;24.53;;;11.13;;
73919;SDS011;62266;53.348;-1.496;2023-05-07T03:14:21;21.45;;;11.45;;
73919;SDS011;62266;53.348;-1.496;2023-05-07T03:17:05;25.10;;;13.07;;
73919;SDS011;62266;53.348;-1.496;2023-05-07T03:19:50;22.45;;;11.60;;
73919;SDS011;62266;53.348;-1.496;2023-05-07T03:22:35;23.85;;;12.48;;
73919;SDS011;62266;53.348;-1.496;2023-05-07T03:25:19;23.20;;;12.03;;
73919;SDS011;62266;53.348;-1.496;2023-05-07T03:28:04;25.50;;;11.88;;
73919;SDS011;62266;53.348;-1.496;2023-05-07T03:30:48;22.67;;;12.02;;
73919;SDS011;62266;53.348;-1.496;2023-05-07T03:33:33;23.77;;;11.88;;
73919;SDS011;62266;53.348;-1.496;2023-05-07T03:36:19;21.08;;;10.70;;
73919;SDS011;62266;53.348;-1.496;2023-05-07T03:39:03;22.47;;;11.03;;
73919;SDS011;62266;53.348;-1.496;2023-05-07T03:41:48;21.60;;;11.45;;
73919;SDS011;62266;53.348;-1.496;2023-05-07T03:44:33;24.20;;;12.68;;
73919;SDS011;62266;53.348;-1.496;2023-05-07T03:47:20;22.65;;;11.65;;
73919;SDS011;62266;53.348;-1.496;2023-05-07T03:50:04;25.63;;;11.57;;
73919;SDS011;62266;53.348;-1.496;2023-05-07T03:52:49;22.90;;;11.40;;
73919;SDS011;62266;53.348;-1.496;2023-05-07T03:55:33;21.40;;;10.85;;
73919;SDS011;62266;53.348;-1.496;2023-05-07T03:58:17;22.55;;;11.50;;
73919;SDS011;62266;53.348;-1.496;2023-05-07T04:01:00;20.83;;;10.55;;
73919;SDS011;62266;53.348;-1.496;2023-05-07T04:03:45;20.38;;;10.82;;
73919;SDS011;62266;53.348;-1.496;2023-05-07T04:06:29;21.57;;;11.63;;
73919;SDS011;62266;53.348;-1.496;2023-05-07T04:09:14;23.25;;;11.05;;
73919;SDS011;62266;53.348;-1.496;2023-05-07T04:11:58;23.80;;;11.95;;
73919;SDS011;62266;53.348;-1.496;2023-05-07T04:14:41;23.70;;;10.50;;
73919;SDS011;62266;53.348;-1.496;2023-05-07T04:17:26;21.73;;;10.18;;
73919;SDS011;62266;53.348;-1.496;2023-05-07T04:20:14;22.80;;;11.63;;
73919;SDS011;62266;53.348;-1.496;2023-05-07T04:22:59;20.85;;;10.77;;
73919;SDS011;62266;53.348;-1.496;2023-05-07T04:25:44;20.38;;;10.45;;
73919;SDS011;62266;53.348;-1.496;2023-05-07T04:28:29;23.88;;;11.00;;
73919;SDS011;62266;53.348;-1.496;2023-05-07T04:31:13;22.02;;;11.10;;
73919;SDS011;62266;53.348;-1.496;2023-05-07T04:33:57;20.30;;;10.30;;
73919;SDS011;62266;53.348;-1.496;2023-05-07T04:36:41;19.10;;;9.98;;
73919;SDS011;62266;53.348;-1.496;2023-05-07T04:39:26;20.40;;;10.32;;
73919;SDS011;62266;53.348;-1.496;2023-05-07T04:42:14;21.20;;;10.40;;
73919;SDS011;62266;53.348;-1.496;2023-05-07T04:44:59;21.45;;;10.90;;
73919;SDS011;62266;53.348;-1.496;2023-05-07T04:47:43;22.83;;;9.93;;
73919;SDS011;62266;53.348;-1.496;2023-05-07T04:50:28;22.23;;;10.38;;
73919;SDS011;62266;53.348;-1.496;2023-05-07T04:53:12;23.33;;;10.93;;
73919;SDS011;62266;53.348;-1.496;2023-05-07T04:55:56;23.23;;;10.68;;
73919;SDS011;62266;53.348;-1.496;2023-05-07T04:58:43;20.30;;;10.50;;
73919;SDS011;62266;53.348;-1.496;2023-05-07T05:01:28;28.50;;;12.20;;
73919;SDS011;62266;53.348;-1.496;2023-05-07T05:04:12;23.92;;;11.43;;
73919;SDS011;62266;53.348;-1.496;2023-05-07T05:06:57;23.40;;;10.82;;
73919;SDS011;62266;53.348;-1.496;2023-05-07T05:09:42;22.73;;;10.82;;
73919;SDS011;62266;53.348;-1.496;2023-05-07T05:12:26;22.30;;;11.35;;
73919;SDS011;62266;53.348;-1.496;2023-05-07T05:15:11;20.10;;;10.33;;
73919;SDS011;62266;53.348;-1.496;2023-05-07T05:17:56;22.77;;;10.93;;
73919;SDS011;62266;53.348;-1.496;2023-05-07T05:20:41;19.80;;;10.30;;
73919;SDS011;62266;53.348;-1.496;2023-05-07T05:23:19;17.63;;;8.98;;
73919;SDS011;62266;53.348;-1.496;2023-05-07T05:26:03;18.77;;;9.35;;
73919;SDS011;62266;53.348;-1.496;2023-05-07T05:28:47;15.73;;;8.30;;
73919;SDS011;62266;53.348;-1.496;2023-05-07T05:31:32;13.15;;;7.20;;
73919;SDS011;62266;53.348;-1.496;2023-05-07T05:34:17;15.13;;;6.63;;
73919;SDS011;62266;53.348;-1.496;2023-05-07T05:37:03;11.25;;;6.43;;
73919;SDS011;62266;53.348;-1.496;2023-05-07T05:39:47;12.52;;;7.63;;
73919;SDS011;62266;53.348;-1.496;2023-05-07T05:42:31;17.37;;;8.73;;
73919;SDS011;62266;53.348;-1.496;2023-05-07T05:45:15;14.32;;;7.38;;
73919;SDS011;62266;53.348;-1.496;2023-05-07T05:47:59;16.85;;;8.30;;
73919;SDS011;62266;53.348;-1.496;2023-05-07T05:50:44;11.70;;;5.93;;
73919;SDS011;62266;53.348;-1.496;2023-05-07T05:53:28;9.75;;;5.78;;
73919;SDS011;62266;53.348;-1.496;2023-05-07T05:56:13;7.40;;;4.80;;
73919;SDS011;62266;53.348;-1.496;2023-05-07T05:58:57;9.57;;;5.03;;
73919;SDS011;62266;53.348;-1.496;2023-05-07T06:01:41;9.43;;;5.93;;
73919;SDS011;62266;53.348;-1.496;2023-05-07T06:04:25;10.60;;;5.60;;
73919;SDS011;62266;53.348;-1.496;2023-05-07T06:07:10;7.40;;;4.72;;
73919;SDS011;62266;53.348;-1.496;2023-05-07T06:09:55;7.23;;;4.60;;
73919;SDS011;62266;53.348;-1.496;2023-05-07T06:12:39;6.05;;;4.00;;
73919;SDS011;62266;53.348;-1.496;2023-05-07T06:15:23;6.65;;;4.35;;
73919;SDS011;62266;53.348;-1.496;2023-05-07T06:18:08;7.97;;;5.05;;
73919;SDS011;62266;53.348;-1.496;2023-05-07T06:20:52;6.28;;;4.28;;
73919;SDS011;62266;53.348;-1.496;2023-05-07T06:23:36;7.77;;;5.03;;
73919;SDS011;62266;53.348;-1.496;2023-05-07T06:26:20;6.18;;;4.25;;
73919;SDS011;62266;53.348;-1.496;2023-05-07T06:29:05;5.50;;;3.70;;
73919;SDS011;62266;53.348;-1.496;2023-05-07T06:31:49;5.95;;;3.88;;
73919;SDS011;62266;53.348;-1.496;2023-05-07T06:34:34;5.85;;;3.78;;
73919;SDS011;62266;53.348;-1.496;2023-05-07T06:37:18;5.30;;;3.97;;
73919;SDS011;62266;53.348;-1.496;2023-05-07T06:40:02;5.88;;;3.80;;
73919;SDS011;62266;53.348;-1.496;2023-05-07T06:42:47;5.95;;;3.95;;
73919;SDS011;62266;53.348;-1.496;2023-05-07T06:45:31;5.80;;;4.57;;
73919;SDS011;62266;53.348;-1.496;2023-05-07T06:48:17;6.82;;;4.60;;
73919;SDS011;62266;53.348;-1.496;2023-05-07T06:51:01;6.17;;;4.60;;
73919;SDS011;62266;53.348;-1.496;2023-05-07T06:53:45;6.78;;;4.47;;
73919;SDS011;62266;53.348;-1.496;2023-05-07T06:56:32;7.30;;;4.60;;
73919;SDS011;62266;53.348;-1.496;2023-05-07T06:59:16;5.00;;;4.47;;
73919;SDS011;62266;53.348;-1.496;2023-05-07T07:02:08;6.00;;;4.90;;
73919;SDS011;62266;53.348;-1.496;2023-05-07T07:04:52;6.30;;;4.67;;
73919;SDS011;62266;53.348;-1.496;2023-05-07T07:07:37;5.20;;;4.40;;
73919;SDS011;62266;53.348;-1.496;2023-05-07T07:10:22;5.45;;;4.25;;
73919;SDS011;62266;53.348;-1.496;2023-05-07T07:13:07;6.13;;;4.65;;
73919;SDS011;62266;53.348;-1.496;2023-05-07T07:15:53;7.43;;;5.30;;
73919;SDS011;62266;53.348;-1.496;2023-05-07T07:18:43;5.80;;;4.37;;
73919;SDS011;62266;53.348;-1.496;2023-05-07T07:21:27;6.97;;;5.05;;
73919;SDS011;62266;53.348;-1.496;2023-05-07T07:24:12;6.30;;;5.00;;
73919;SDS011;62266;53.348;-1.496;2023-05-07T07:27:02;6.32;;;4.53;;
73919;SDS011;62266;53.348;-1.496;2023-05-07T07:29:46;6.68;;;4.78;;
73919;SDS011;62266;53.348;-1.496;2023-05-07T07:32:30;6.50;;;4.90;;
73919;SDS011;62266;53.348;-1.496;2023-05-07T07:35:16;9.32;;;5.38;;
73919;SDS011;62266;53.348;-1.496;2023-05-07T07:38:00;6.97;;;5.03;;
73919;SDS011;62266;53.348;-1.496;2023-05-07T07:40:45;7.72;;;5.25;;
73919;SDS011;62266;53.348;-1.496;2023-05-07T07:43:30;7.43;;;4.85;;
73919;SDS011;62266;53.348;-1.496;2023-05-07T07:46:14;9.77;;;4.83;;
73919;SDS011;62266;53.348;-1.496;2023-05-07T07:48:59;4.78;;;4.10;;
73919;SDS011;62266;53.348;-1.496;2023-05-07T07:51:43;7.43;;;4.70;;
73919;SDS011;62266;53.348;-1.496;2023-05-07T07:54:28;7.13;;;4.47;;
73919;SDS011;62266;53.348;-1.496;2023-05-07T07:57:13;7.10;;;4.47;;
73919;SDS011;62266;53.348;-1.496;2023-05-07T07:59:57;6.17;;;4.23;;
73919;SDS011;62266;53.348;-1.496;2023-05-07T08:02:41;8.13;;;4.78;;
73919;SDS011;62266;53.348;-1.496;2023-05-07T08:05:25;6.75;;;4.75;;
73919;SDS011;62266;53.348;-1.496;2023-05-07T08:10:58;6.63;;;4.60;;
73919;SDS011;62266;53.348;-1.496;2023-05-07T08:13:46;6.27;;;4.07;;
73919;SDS011;62266;53.348;-1.496;2023-05-07T08:24:27;3.50;;;3.20;;
73919;SDS011;62266;53.348;-1.496;2023-05-07T08:32:36;5.25;;;3.72;;
73919;SDS011;62266;53.348;-1.496;2023-05-07T08:35:23;5.72;;;3.55;;
73919;SDS011;62266;53.348;-1.496;2023-05-07T08:38:09;4.95;;;3.40;;
73919;SDS011;62266;53.348;-1.496;2023-05-07T08:43:39;4.78;;;3.38;;
73919;SDS011;62266;53.348;-1.496;2023-05-07T08:46:25;3.67;;;2.58;;
73919;SDS011;62266;53.348;-1.496;2023-05-07T08:49:20;4.88;;;2.55;;
73919;SDS011;62266;53.348;-1.496;2023-05-07T08:52:18;3.00;;;2.20;;
73919;SDS011;62266;53.348;-1.496;2023-05-07T08:55:06;3.03;;;2.33;;
73919;SDS011;62266;53.348;-1.496;2023-05-07T08:58:04;3.38;;;2.58;;
73919;SDS011;62266;53.348;-1.496;2023-05-07T09:01:01;4.57;;;3.00;;
73919;SDS011;62266;53.348;-1.496;2023-05-07T09:04:22;3.38;;;2.50;;
73919;SDS011;62266;53.348;-1.496;2023-05-07T09:07:09;2.97;;;2.42;;
73919;SDS011;62266;53.348;-1.496;2023-05-07T09:10:03;3.07;;;2.63;;
73919;SDS011;62266;53.348;-1.496;2023-05-07T09:12:51;2.72;;;2.20;;
73919;SDS011;62266;53.348;-1.496;2023-05-07T09:15:35;3.30;;;2.88;;
73919;SDS011;62266;53.348;-1.496;2023-05-07T09:18:19;3.53;;;3.10;;
73919;SDS011;62266;53.348;-1.496;2023-05-07T09:21:10;4.25;;;2.65;;
73919;SDS011;62266;53.348;-1.496;2023-05-07T09:24:07;3.07;;;2.70;;
73919;SDS011;62266;53.348;-1.496;2023-05-07T09:26:51;4.32;;;2.70;;
73919;SDS011;62266;53.348;-1.496;2023-05-07T09:29:36;6.10;;;3.85;;
73919;SDS011;62266;53.348;-1.496;2023-05-07T09:32:24;4.32;;;3.28;;
73919;SDS011;62266;53.348;-1.496;2023-05-07T09:35:14;4.07;;;2.65;;
73919;SDS011;62266;53.348;-1.496;2023-05-07T09:38:00;3.70;;;2.77;;
73919;SDS011;62266;53.348;-1.496;2023-05-07T09:41:00;3.85;;;3.10;;
73919;SDS011;62266;53.348;-1.496;2023-05-07T09:43:49;5.78;;;3.50;;
73919;SDS011;62266;53.348;-1.496;2023-05-07T09:46:45;6.07;;;4.15;;
73919;SDS011;62266;53.348;-1.496;2023-05-07T09:49:31;4.70;;;3.63;;
73919;SDS011;62266;53.348;-1.496;2023-05-07T09:52:23;4.67;;;3.67;;
73919;SDS011;62266;53.348;-1.496;2023-05-07T09:55:25;4.95;;;3.58;;
73919;SDS011;62266;53.348;-1.496;2023-05-07T09:58:12;5.25;;;3.45;;
73919;SDS011;62266;53.348;-1.496;2023-05-07T10:00:59;4.13;;;2.80;;
73919;SDS011;62266;53.348;-1.496;2023-05-07T10:03:44;5.47;;;3.40;;
73919;SDS011;62266;53.348;-1.496;2023-05-07T10:06:32;5.30;;;3.30;;
73919;SDS011;62266;53.348;-1.496;2023-05-07T10:09:16;4.35;;;2.78;;
73919;SDS011;62266;53.348;-1.496;2023-05-07T10:12:00;5.13;;;3.42;;
73919;SDS011;62266;53.348;-1.496;2023-05-07T10:14:45;4.00;;;2.65;;
73919;SDS011;62266;53.348;-1.496;2023-05-07T10:17:31;4.25;;;2.67;;
73919;SDS011;62266;53.348;-1.496;2023-05-07T10:20:15;4.17;;;2.80;;
73919;SDS011;62266;53.348;-1.496;2023-05-07T10:23:05;3.35;;;2.33;;
73919;SDS011;62266;53.348;-1.496;2023-05-07T10:25:51;3.65;;;2.72;;
73919;SDS011;62266;53.348;-1.496;2023-05-07T10:28:38;4.60;;;3.13;;
73919;SDS011;62266;53.348;-1.496;2023-05-07T10:34:27;3.80;;;2.70;;
73919;SDS011;62266;53.348;-1.496;2023-05-07T10:37:18;4.10;;;2.58;;
73919;SDS011;62266;53.348;-1.496;2023-05-07T10:40:06;3.10;;;2.53;;
73919;SDS011;62266;53.348;-1.496;2023-05-07T10:48:25;3.47;;;2.50;;
73919;SDS011;62266;53.348;-1.496;2023-05-07T10:51:19;5.10;;;2.97;;
73919;SDS011;62266;53.348;-1.496;2023-05-07T10:56:56;4.03;;;2.42;;
73919;SDS011;62266;53.348;-1.496;2023-05-07T10:59:41;4.63;;;2.85;;
73919;SDS011;62266;53.348;-1.496;2023-05-07T11:05:44;4.80;;;2.97;;
73919;SDS011;62266;53.348;-1.496;2023-05-07T11:09:15;6.55;;;2.95;;
73919;SDS011;62266;53.348;-1.496;2023-05-07T11:11:44;3.97;;;2.60;;
73919;SDS011;62266;53.348;-1.496;2023-05-07T11:17:29;4.93;;;2.40;;
73919;SDS011;62266;53.348;-1.496;2023-05-07T11:20:15;4.50;;;2.40;;
73919;SDS011;62266;53.348;-1.496;2023-05-07T11:23:00;3.80;;;2.10;;
73919;SDS011;62266;53.348;-1.496;2023-05-07T11:25:44;3.38;;;2.10;;
73919;SDS011;62266;53.348;-1.496;2023-05-07T11:28:39;4.93;;;2.50;;
73919;SDS011;62266;53.348;-1.496;2023-05-07T11:31:25;3.10;;;2.10;;
73919;SDS011;62266;53.348;-1.496;2023-05-07T11:34:12;5.53;;;2.70;;
73919;SDS011;62266;53.348;-1.496;2023-05-07T11:36:58;5.15;;;2.42;;
73919;SDS011;62266;53.348;-1.496;2023-05-07T11:39:43;5.00;;;2.58;;
73919;SDS011;62266;53.348;-1.496;2023-05-07T11:42:28;4.22;;;2.45;;
73919;SDS011;62266;53.348;-1.496;2023-05-07T11:45:22;2.90;;;2.10;;
73919;SDS011;62266;53.348;-1.496;2023-05-07T11:48:09;4.60;;;2.10;;
73919;SDS011;62266;53.348;-1.496;2023-05-07T11:53:43;4.50;;;2.08;;
73919;SDS011;62266;53.348;-1.496;2023-05-07T11:56:28;5.07;;;2.25;;
73919;SDS011;62266;53.348;-1.496;2023-05-07T11:59:12;3.03;;;1.70;;
73919;SDS011;62266;53.348;-1.496;2023-05-07T12:02:00;3.67;;;2.00;;
73919;SDS011;62266;53.348;-1.496;2023-05-07T12:04:45;2.67;;;1.95;;
73919;SDS011;62266;53.348;-1.496;2023-05-07T12:07:29;4.15;;;1.50;;
73919;SDS011;62266;53.348;-1.496;2023-05-07T12:10:13;4.90;;;1.80;;
73919;SDS011;62266;53.348;-1.496;2023-05-07T12:12:57;3.20;;;1.73;;
73919;SDS011;62266;53.348;-1.496;2023-05-07T12:15:42;2.80;;;1.70;;
73919;SDS011;62266;53.348;-1.496;2023-05-07T12:18:27;3.90;;;2.00;;
73919;SDS011;62266;53.348;-1.496;2023-05-07T12:21:18;3.08;;;1.70;;
73919;SDS011;62266;53.348;-1.496;2023-05-07T12:24:08;4.32;;;1.63;;
73919;SDS011;62266;53.348;-1.496;2023-05-07T12:26:54;3.20;;;1.30;;
73919;SDS011;62266;53.348;-1.496;2023-05-07T12:29:38;2.10;;;1.23;;
73919;SDS011;62266;53.348;-1.496;2023-05-07T12:32:27;3.03;;;1.52;;
73919;SDS011;62266;53.348;-1.496;2023-05-07T12:35:12;2.20;;;1.42;;
73919;SDS011;62266;53.348;-1.496;2023-05-07T12:37:59;6.90;;;1.73;;
73919;SDS011;62266;53.348;-1.496;2023-05-07T12:40:50;4.27;;;1.90;;
73919;SDS011;62266;53.348;-1.496;2023-05-07T12:43:38;3.50;;;1.58;;
73919;SDS011;62266;53.348;-1.496;2023-05-07T12:46:22;4.28;;;1.40;;
73919;SDS011;62266;53.348;-1.496;2023-05-07T12:49:07;2.58;;;1.30;;
73919;SDS011;62266;53.348;-1.496;2023-05-07T12:51:51;3.78;;;1.45;;
73919;SDS011;62266;53.348;-1.496;2023-05-07T12:54:37;6.00;;;2.17;;
73919;SDS011;62266;53.348;-1.496;2023-05-07T12:57:22;5.60;;;2.15;;
73919;SDS011;62266;53.348;-1.496;2023-05-07T13:00:06;5.88;;;2.03;;
73919;SDS011;62266;53.348;-1.496;2023-05-07T13:02:51;6.35;;;2.10;;
73919;SDS011;62266;53.348;-1.496;2023-05-07T13:05:35;4.35;;;1.88;;
73919;SDS011;62266;53.348;-1.496;2023-05-07T13:08:30;5.90;;;1.97;;
73919;SDS011;62266;53.348;-1.496;2023-05-07T13:11:17;4.07;;;1.77;;
73919;SDS011;62266;53.348;-1.496;2023-05-07T13:14:02;3.63;;;1.85;;
73919;SDS011;62266;53.348;-1.496;2023-05-07T13:16:47;5.25;;;1.80;;
73919;SDS011;62266;53.348;-1.496;2023-05-07T13:19:32;7.65;;;1.80;;
73919;SDS011;62266;53.348;-1.496;2023-05-07T13:22:16;3.87;;;1.90;;
73919;SDS011;62266;53.348;-1.496;2023-05-07T13:25:03;3.58;;;1.85;;
73919;SDS011;62266;53.348;-1.496;2023-05-07T13:27:48;3.58;;;1.50;;
73919;SDS011;62266;53.348;-1.496;2023-05-07T13:30:33;5.43;;;1.35;;
73919;SDS011;62266;53.348;-1.496;2023-05-07T13:33:17;3.60;;;1.50;;
73919;SDS011;62266;53.348;-1.496;2023-05-07T13:36:02;2.93;;;1.33;;
73919;SDS011;62266;53.348;-1.496;2023-05-07T13:38:49;4.80;;;1.35;;
73919;SDS011;62266;53.348;-1.496;2023-05-07T13:41:35;2.35;;;1.30;;
73919;SDS011;62266;53.348;-1.496;2023-05-07T13:44:26;3.22;;;1.50;;
73919;SDS011;62266;53.348;-1.496;2023-05-07T13:47:13;4.65;;;1.75;;
73919;SDS011;62266;53.348;-1.496;2023-05-07T13:50:01;3.20;;;1.80;;
73919;SDS011;62266;53.348;-1.496;2023-05-07T13:52:49;3.10;;;1.60;;
73919;SDS011;62266;53.348;-1.496;2023-05-07T13:55:36;2.97;;;1.83;;
73919;SDS011;62266;53.348;-1.496;2023-05-07T13:58:20;5.57;;;1.90;;
73919;SDS011;62266;53.348;-1.496;2023-05-07T14:01:05;5.20;;;2.05;;
73919;SDS011;62266;53.348;-1.496;2023-05-07T14:03:50;3.17;;;1.50;;
73919;SDS011;62266;53.348;-1.496;2023-05-07T14:06:35;3.65;;;1.80;;
73919;SDS011;62266;53.348;-1.496;2023-05-07T14:09:19;3.80;;;1.30;;
73919;SDS011;62266;53.348;-1.496;2023-05-07T14:12:07;3.63;;;1.60;;
73919;SDS011;62266;53.348;-1.496;2023-05-07T14:14:56;3.53;;;1.45;;
73919;SDS011;62266;53.348;-1.496;2023-05-07T14:17:40;2.97;;;1.60;;
73919;SDS011;62266;53.348;-1.496;2023-05-07T14:20:26;3.35;;;1.42;;
73919;SDS011;62266;53.348;-1.496;2023-05-07T14:23:10;2.63;;;1.48;;
73919;SDS011;62266;53.348;-1.496;2023-05-07T14:26:09;3.05;;;1.70;;
73919;SDS011;62266;53.348;-1.496;2023-05-07T14:28:59;3.80;;;1.65;;
73919;SDS011;62266;53.348;-1.496;2023-05-07T14:31:44;6.40;;;1.50;;
73919;SDS011;62266;53.348;-1.496;2023-05-07T14:34:29;2.58;;;1.45;;
73919;SDS011;62266;53.348;-1.496;2023-05-07T14:37:13;3.80;;;1.58;;
73919;SDS011;62266;53.348;-1.496;2023-05-07T14:39:58;4.35;;;1.50;;
73919;SDS011;62266;53.348;-1.496;2023-05-07T14:42:42;4.22;;;1.65;;
73919;SDS011;62266;53.348;-1.496;2023-05-07T14:45:27;2.60;;;1.50;;
73919;SDS011;62266;53.348;-1.496;2023-05-07T14:48:11;4.05;;;1.63;;
73919;SDS011;62266;53.348;-1.496;2023-05-07T14:50:58;3.28;;;1.70;;
73919;SDS011;62266;53.348;-1.496;2023-05-07T14:53:43;3.13;;;1.95;;
73919;SDS011;62266;53.348;-1.496;2023-05-07T14:56:28;2.83;;;1.70;;
73919;SDS011;62266;53.348;-1.496;2023-05-07T14:59:12;3.63;;;1.90;;
73919;SDS011;62266;53.348;-1.496;2023-05-07T15:01:57;4.60;;;2.53;;
73919;SDS011;62266;53.348;-1.496;2023-05-07T15:04:41;3.47;;;1.90;;
73919;SDS011;62266;53.348;-1.496;2023-05-07T15:07:29;3.88;;;2.10;;
73919;SDS011;62266;53.348;-1.496;2023-05-07T15:10:19;2.17;;;1.80;;
73919;SDS011;62266;53.348;-1.496;2023-05-07T15:13:04;3.33;;;1.80;;
73919;SDS011;62266;53.348;-1.496;2023-05-07T15:15:48;2.65;;;1.80;;
73919;SDS011;62266;53.348;-1.496;2023-05-07T15:18:36;3.90;;;2.10;;
73919;SDS011;62266;53.348;-1.496;2023-05-07T15:21:20;5.38;;;2.58;;
73919;SDS011;62266;53.348;-1.496;2023-05-07T15:24:05;4.05;;;2.33;;
73919;SDS011;62266;53.348;-1.496;2023-05-07T15:26:51;2.97;;;2.20;;
73919;SDS011;62266;53.348;-1.496;2023-05-07T15:29:36;3.38;;;1.80;;
73919;SDS011;62266;53.348;-1.496;2023-05-07T15:32:21;3.80;;;2.00;;
73919;SDS011;62266;53.348;-1.496;2023-05-07T15:35:06;5.38;;;2.30;;
73919;SDS011;62266;53.348;-1.496;2023-05-07T15:37:53;4.47;;;2.60;;
73919;SDS011;62266;53.348;-1.496;2023-05-07T15:40:39;3.97;;;2.50;;
73919;SDS011;62266;53.348;-1.496;2023-05-07T15:43:26;4.60;;;2.70;;
73919;SDS011;62266;53.348;-1.496;2023-05-07T15:46:11;5.47;;;2.47;;
73919;SDS011;62266;53.348;-1.496;2023-05-07T15:48:55;3.63;;;2.08;;
73919;SDS011;62266;53.348;-1.496;2023-05-07T15:51:40;3.70;;;2.05;;
73919;SDS011;62266;53.348;-1.496;2023-05-07T15:54:24;4.53;;;1.90;;
73919;SDS011;62266;53.348;-1.496;2023-05-07T15:57:09;2.45;;;1.50;;
73919;SDS011;62266;53.348;-1.496;2023-05-07T15:59:54;3.45;;;1.60;;
73919;SDS011;62266;53.348;-1.496;2023-05-07T16:02:38;3.25;;;1.63;;
73919;SDS011;62266;53.348;-1.496;2023-05-07T16:05:29;2.63;;;1.70;;
73919;SDS011;62266;53.348;-1.496;2023-05-07T16:08:15;3.37;;;1.83;;
73919;SDS011;62266;53.348;-1.496;2023-05-07T16:11:00;4.40;;;2.00;;
73919;SDS011;62266;53.348;-1.496;2023-05-07T16:13:47;3.90;;;1.73;;
73919;SDS011;62266;53.348;-1.496;2023-05-07T16:16:34;1.95;;;1.50;;
73919;SDS011;62266;53.348;-1.496;2023-05-07T16:19:20;2.15;;;1.23;;
73919;SDS011;62266;53.348;-1.496;2023-05-07T16:22:06;2.33;;;1.03;;
73919;SDS011;62266;53.348;-1.496;2023-05-07T16:24:51;1.75;;;0.90;;
73919;SDS011;62266;53.348;-1.496;2023-05-07T16:27:35;3.25;;;1.27;;
73919;SDS011;62266;53.348;-1.496;2023-05-07T16:30:21;4.70;;;0.98;;
73919;SDS011;62266;53.348;-1.496;2023-05-07T16:33:06;2.00;;;1.00;;
73919;SDS011;62266;53.348;-1.496;2023-05-07T16:35:51;3.37;;;1.07;;
73919;SDS011;62266;53.348;-1.496;2023-05-07T16:38:36;3.22;;;1.27;;
73919;SDS011;62266;53.348;-1.496;2023-05-07T16:41:21;2.25;;;1.10;;
73919;SDS011;62266;53.348;-1.496;2023-05-07T16:44:05;3.53;;;1.10;;
73919;SDS011;62266;53.348;-1.496;2023-05-07T16:46:49;2.92;;;1.30;;
73919;SDS011;62266;53.348;-1.496;2023-05-07T16:49:35;2.50;;;1.17;;
73919;SDS011;62266;53.348;-1.496;2023-05-07T16:52:19;1.90;;;1.35;;
73919;SDS011;62266;53.348;-1.496;2023-05-07T16:55:04;2.38;;;0.93;;